createdAt,value
2023-04-02T00:01:02.320Z,97297.81
2023-04-02T00:03:43.116Z,97301.53
2023-04-02T00:06:34.535Z,97300.38
2023-04-02T00:09:29.140Z,97296.41
2023-04-02T00:11:57.294Z,97296.41
2023-04-02T00:14:33.865Z,97299.34
2023-04-02T00:17:05.484Z,97296.25
2023-04-02T00:19:38.629Z,97303.34
2023-04-02T00:22:16.230Z,97298.50
2023-04-02T00:24:43.457Z,97300.81
2023-04-02T00:27:15.076Z,97293.38
2023-04-02T00:29:57.104Z,97289.28
2023-04-02T00:32:31.479Z,97295.34
2023-04-02T00:34:59.770Z,97293.94
2023-04-02T00:37:39.317Z,97285.16
2023-04-02T00:40:28.209Z,97283.78
2023-04-02T00:42:59.623Z,97296.25
2023-04-02T00:45:30.241Z,97292.41
2023-04-02T00:48:00.207Z,97292.69
2023-04-02T00:50:35.511Z,97291.31
2023-04-02T00:53:11.966Z,97294.13
2023-04-02T00:55:42.059Z,97300.53
2023-04-02T00:58:38.467Z,97297.44
2023-04-02T01:01:17.748Z,97302.97
2023-04-02T01:04:01.655Z,97291.38
2023-04-02T01:06:34.488Z,97294.44
2023-04-02T01:09:32.865Z,97298.00
2023-04-02T01:12:21.168Z,97292.94
2023-04-02T01:15:21.691Z,97297.22
2023-04-02T01:18:10.043Z,97299.81
2023-04-02T01:20:43.335Z,97298.22
2023-04-02T01:23:17.351Z,97310.13
2023-04-02T01:26:18.121Z,97313.66
2023-04-02T01:29:14.396Z,97308.16
2023-04-02T01:31:42.796Z,97305.56
2023-04-02T01:34:15.122Z,97302.72
2023-04-02T01:36:47.919Z,97308.50
2023-04-02T01:39:53.013Z,97311.44
2023-04-02T01:42:32.415Z,97307.47
2023-04-02T01:45:11.441Z,97304.91
2023-04-02T01:47:39.824Z,97305.59
2023-04-02T01:50:13.270Z,97311.38
2023-04-02T01:52:43.475Z,97311.06
2023-04-02T01:55:15.913Z,97314.69
2023-04-02T01:57:46.262Z,97318.81
2023-04-02T02:00:16.074Z,97319.22
2023-04-02T02:02:51.985Z,97319.66
2023-04-02T02:05:23.257Z,97321.88
2023-04-02T02:07:52.925Z,97282.63
2023-04-02T02:10:30.262Z,97329.78
2023-04-02T02:13:00.734Z,97335.53
2023-04-02T02:15:28.920Z,97337.34
2023-04-02T02:18:01.313Z,97327.88
2023-04-02T02:20:29.409Z,97347.38
2023-04-02T02:22:58.193Z,97344.53
2023-04-02T02:25:28.069Z,97339.59
2023-04-02T02:28:01.420Z,97340.88
2023-04-02T02:30:37.042Z,97336.66
2023-04-02T02:33:07.264Z,97336.19
2023-04-02T02:35:55.300Z,97340.19
2023-04-02T02:38:42.345Z,97343.97
2023-04-02T02:41:40.167Z,97337.31
2023-04-02T02:44:10.350Z,97336.56
2023-04-02T02:46:43.614Z,97343.75
2023-04-02T02:49:18.409Z,97327.63
2023-04-02T02:52:09.392Z,97348.25
2023-04-02T02:54:53.961Z,97346.53
2023-04-02T02:57:36.664Z,97348.66
2023-04-02T03:00:06.715Z,97345.88
2023-04-02T03:02:38.918Z,97343.88
2023-04-02T03:05:08.983Z,97350.69
2023-04-02T03:07:37.687Z,97355.06
2023-04-02T03:10:37.001Z,97357.06
2023-04-02T03:13:28.613Z,97359.44
2023-04-02T03:16:18.955Z,97363.44
2023-04-02T03:19:07.811Z,97361.31
2023-04-02T03:21:49.735Z,97361.59
2023-04-02T03:24:47.979Z,97366.78
2023-04-02T03:27:40.840Z,97366.31
2023-04-02T03:30:28.514Z,97372.00
2023-04-02T03:33:15.451Z,97372.69
2023-04-02T03:36:09.659Z,97375.91
2023-04-02T03:38:52.474Z,97381.03
2023-04-02T03:41:48.157Z,97377.47
2023-04-02T03:44:29.133Z,97379.75
2023-04-02T03:47:13.397Z,97371.56
2023-04-02T03:49:52.181Z,97383.56
2023-04-02T03:52:28.238Z,97370.97
2023-04-02T03:55:01.016Z,97369.88
2023-04-02T03:57:31.862Z,97374.75
2023-04-02T04:00:17.533Z,97360.75
2023-04-02T04:03:02.898Z,97362.69
2023-04-02T04:05:31.698Z,97368.31
2023-04-02T04:08:17.537Z,97374.56
2023-04-02T04:10:45.185Z,97373.41
2023-04-02T04:13:26.231Z,97361.38
2023-04-02T04:16:05.741Z,97390.75
2023-04-02T04:18:35.226Z,97384.47
2023-04-02T04:21:16.155Z,97383.28
2023-04-02T04:23:50.758Z,97384.59
2023-04-02T04:26:44.791Z,97399.59
2023-04-02T04:29:41.008Z,97401.63
2023-04-02T04:32:50.781Z,97402.06
2023-04-02T04:35:25.298Z,97401.22
2023-04-02T04:38:08.015Z,97396.09
2023-04-02T04:40:42.531Z,97394.66
2023-04-02T04:43:25.037Z,97399.00
2023-04-02T04:46:01.422Z,97400.56
2023-04-02T04:48:37.746Z,97402.31
2023-04-02T04:51:17.450Z,97408.75
2023-04-02T04:53:51.017Z,97407.75
2023-04-02T04:56:27.307Z,97396.25
2023-04-02T04:59:19.493Z,97400.94
2023-04-02T05:02:17.775Z,97405.88
2023-04-02T05:04:52.037Z,97412.19
2023-04-02T05:07:28.515Z,97408.38
2023-04-02T05:10:05.305Z,97409.16
2023-04-02T05:12:56.968Z,97413.22
2023-04-02T05:15:42.431Z,97417.19
2023-04-02T05:18:20.534Z,97419.66
2023-04-02T05:20:55.053Z,97423.06
2023-04-02T05:23:28.607Z,97426.75
2023-04-02T05:26:18.837Z,97433.97
2023-04-02T05:28:52.425Z,97435.38
2023-04-02T05:31:26.464Z,97427.88
2023-04-02T05:33:55.877Z,97439.78
2023-04-02T05:36:29.628Z,97434.00
2023-04-02T05:39:00.960Z,97433.41
2023-04-02T05:41:48.533Z,97448.66
2023-04-02T05:44:36.839Z,97449.78
2023-04-02T05:47:21.482Z,97443.72
2023-04-02T05:50:01.736Z,97452.59
2023-04-02T05:52:34.706Z,97455.19
2023-04-02T05:55:13.795Z,97461.44
2023-04-02T05:58:13.649Z,97472.44
2023-04-02T06:00:50.391Z,97462.78
2023-04-02T06:03:40.233Z,97466.63
2023-04-02T06:06:29.700Z,97465.38
2023-04-02T06:09:08.930Z,97467.78
2023-04-02T06:11:49.615Z,97470.47
2023-04-02T06:14:18.861Z,97463.78
2023-04-02T06:16:48.335Z,97470.22
2023-04-02T06:19:22.762Z,97472.44
2023-04-02T06:21:53.486Z,97468.03
2023-04-02T06:24:26.019Z,97470.38
2023-04-02T06:27:02.894Z,97464.91
2023-04-02T06:29:41.081Z,97467.00
2023-04-02T06:32:13.609Z,97465.75
2023-04-02T06:34:44.424Z,97473.28
2023-04-02T06:37:38.713Z,97471.06
2023-04-02T06:40:26.240Z,97467.38
2023-04-02T06:42:59.973Z,97466.94
2023-04-02T06:45:42.461Z,97457.72
2023-04-02T06:48:18.263Z,97471.91
2023-04-02T06:51:07.430Z,97476.03
2023-04-02T06:53:39.318Z,97480.78
2023-04-02T06:56:47.838Z,97475.41
2023-04-02T06:59:21.578Z,97471.72
2023-04-02T07:01:57.511Z,97472.91
2023-04-02T07:04:26.119Z,97476.75
2023-04-02T07:06:54.409Z,97465.13
2023-04-02T07:09:24.069Z,97485.88
2023-04-02T07:11:55.292Z,97481.16
2023-04-02T07:14:22.403Z,97490.44
2023-04-02T07:16:49.712Z,97478.59
2023-04-02T07:19:22.330Z,97496.03
2023-04-02T07:21:53.882Z,97501.44
2023-04-02T07:24:22.337Z,97509.72
2023-04-02T07:26:49.536Z,97500.72
2023-04-02T07:29:17.893Z,97507.50
2023-04-02T07:31:45.454Z,97497.31
2023-04-02T07:34:12.709Z,97505.72
2023-04-02T07:36:39.890Z,97495.72
2023-04-02T07:39:07.077Z,97511.75
2023-04-02T07:41:34.248Z,97508.69
2023-04-02T07:44:01.461Z,97502.16
2023-04-02T07:46:28.970Z,97504.47
2023-04-02T07:48:56.389Z,97516.41
2023-04-02T07:51:26.263Z,97515.13
2023-04-02T07:53:56.630Z,97508.41
2023-04-02T07:56:25.269Z,97511.03
2023-04-02T07:58:53.025Z,97504.31
2023-04-02T08:01:24.725Z,97511.56
2023-04-02T08:03:54.430Z,97513.41
2023-04-02T08:06:22.927Z,97523.38
2023-04-02T08:08:51.032Z,97513.41
2023-04-02T08:11:18.152Z,97515.78
2023-04-02T08:13:45.297Z,97511.44
2023-04-02T08:16:12.639Z,97509.44
2023-04-02T08:18:40.272Z,97499.84
2023-04-02T08:21:09.644Z,97510.47
2023-04-02T08:23:37.422Z,97497.47
2023-04-02T08:26:05.981Z,97493.25
2023-04-02T08:28:33.162Z,97495.38
2023-04-02T08:31:00.374Z,97502.06
2023-04-02T08:33:27.571Z,97497.34
2023-04-02T08:35:54.901Z,97495.91
2023-04-02T08:38:22.899Z,97474.91
2023-04-02T08:40:53.055Z,97493.50
2023-04-02T08:43:51.006Z,97481.63
2023-04-02T08:46:30.934Z,97474.41
2023-04-02T08:49:02.313Z,97472.81
2023-04-02T08:51:34.598Z,97473.03
2023-04-02T08:54:28.000Z,97459.00
2023-04-02T08:57:19.670Z,97457.13
2023-04-02T08:59:48.246Z,97443.81
2023-04-02T09:02:36.618Z,97445.53
2023-04-02T09:05:07.465Z,97455.31
2023-04-02T09:07:35.331Z,97455.41
2023-04-02T09:10:02.692Z,97458.19
2023-04-02T09:12:32.350Z,97456.22
2023-04-02T09:15:24.960Z,97447.22
2023-04-02T09:18:07.127Z,97441.50
2023-04-02T09:20:34.308Z,97443.47
2023-04-02T09:23:01.516Z,97444.19
2023-04-02T09:25:32.447Z,97447.66
2023-04-02T09:28:04.228Z,97447.00
2023-04-02T09:30:34.087Z,97447.63
2023-04-02T09:33:09.916Z,97443.91
2023-04-02T09:35:58.297Z,97436.91
2023-04-02T09:38:35.592Z,97428.88
2023-04-02T09:41:19.174Z,97437.06
2023-04-02T09:43:46.630Z,97428.56
2023-04-02T09:46:13.848Z,97424.66
2023-04-02T09:48:46.377Z,97434.44
2023-04-02T09:51:15.715Z,97432.00
2023-04-02T09:53:49.712Z,97427.63
2023-04-02T09:56:23.591Z,97423.94
2023-04-02T09:59:06.818Z,97429.22
2023-04-02T10:01:40.261Z,97432.28
2023-04-02T10:04:39.069Z,97423.34
2023-04-02T10:07:07.134Z,97413.44
2023-04-02T10:09:37.697Z,97411.38
2023-04-02T10:12:08.208Z,97411.09
2023-04-02T10:14:43.626Z,97407.34
2023-04-02T10:17:41.175Z,97408.63
2023-04-02T10:20:21.378Z,97408.41
2023-04-02T10:22:49.273Z,97398.53
2023-04-02T10:25:19.852Z,97400.13
2023-04-02T10:28:24.558Z,97404.06
2023-04-02T10:30:56.696Z,97401.78
2023-04-02T10:33:38.133Z,97402.34
2023-04-02T10:36:38.173Z,97395.28
2023-04-02T10:39:31.989Z,97398.81
2023-04-02T10:42:11.338Z,97395.00
2023-04-02T10:45:04.891Z,97391.47
2023-04-02T10:47:50.654Z,97394.38
2023-04-02T10:50:28.338Z,97388.38
2023-04-02T10:53:06.960Z,97389.50
2023-04-02T10:55:43.255Z,97380.88
2023-04-02T10:58:25.945Z,97379.69
2023-04-02T11:01:00.502Z,97377.94
2023-04-02T11:03:43.796Z,97368.97
2023-04-02T11:06:21.480Z,97377.25
2023-04-02T11:08:52.483Z,97367.53
2023-04-02T11:11:27.858Z,97369.59
2023-04-02T11:14:13.008Z,97367.66
2023-04-02T11:16:44.041Z,97364.69
2023-04-02T11:19:17.524Z,97360.53
2023-04-02T11:21:58.658Z,97359.38
2023-04-02T11:24:33.942Z,97354.38
2023-04-02T11:27:18.779Z,97351.41
2023-04-02T11:30:14.412Z,97344.03
2023-04-02T11:32:49.789Z,97332.47
2023-04-02T11:35:46.584Z,97332.56
2023-04-02T11:38:19.814Z,97340.00
2023-04-02T11:40:53.364Z,97339.53
2023-04-02T11:43:38.357Z,97339.19
2023-04-02T11:46:20.821Z,97331.97
2023-04-02T11:48:48.042Z,97326.13
2023-04-02T11:51:21.423Z,97330.31
2023-04-02T11:53:58.801Z,97329.84
2023-04-02T11:56:47.453Z,97322.47
2023-04-02T11:59:23.528Z,97323.19
2023-04-02T12:02:21.706Z,97321.00
2023-04-02T12:05:04.648Z,97314.03
2023-04-02T12:08:09.081Z,97310.53
2023-04-02T12:10:56.960Z,97303.81
2023-04-02T12:13:48.385Z,97302.59
2023-04-02T12:16:17.250Z,97293.47
2023-04-02T12:18:54.147Z,97286.16
2023-04-02T12:21:25.766Z,97279.22
2023-04-02T12:23:56.293Z,97290.19
2023-04-02T12:26:38.826Z,97283.00
2023-04-02T12:29:26.478Z,97286.38
2023-04-02T12:31:56.032Z,97284.59
2023-04-02T12:34:28.917Z,97286.78
2023-04-02T12:36:59.939Z,97286.94
2023-04-02T12:39:28.531Z,97273.25
2023-04-02T12:41:56.417Z,97285.44
2023-04-02T12:44:27.476Z,97275.50
2023-04-02T12:46:55.171Z,97270.69
2023-04-02T12:49:40.554Z,97260.59
2023-04-02T12:52:11.861Z,97278.16
2023-04-02T12:54:46.894Z,97260.06
2023-04-02T12:57:40.638Z,97256.66
2023-04-02T13:00:23.000Z,97249.44
2023-04-02T13:03:00.766Z,97254.41
2023-04-02T13:05:41.625Z,97252.00
2023-04-02T13:08:31.230Z,97261.78
2023-04-02T13:11:03.342Z,97255.03
2023-04-02T13:13:37.993Z,97259.69
2023-04-02T13:16:24.760Z,97257.16
2023-04-02T13:18:52.037Z,97247.97
2023-04-02T13:21:21.971Z,97248.28
2023-04-02T13:23:49.065Z,97244.44
2023-04-02T13:26:22.446Z,97254.06
2023-04-02T13:28:57.455Z,97245.19
2023-04-02T13:31:24.930Z,97250.19
2023-04-02T13:33:52.350Z,97251.50
2023-04-02T13:36:19.540Z,97259.88
2023-04-02T13:38:46.722Z,97257.19
2023-04-02T13:41:26.604Z,97253.06
2023-04-02T13:43:55.960Z,97237.78
2023-04-02T13:46:26.693Z,97253.69
2023-04-02T13:48:55.603Z,97248.94
2023-04-02T13:51:44.713Z,97254.16
2023-04-02T13:54:29.802Z,97242.84
2023-04-02T13:56:57.487Z,97234.16
2023-04-02T13:59:26.334Z,97241.13
2023-04-02T14:02:01.991Z,97240.66
2023-04-02T14:04:33.673Z,97234.03
2023-04-02T14:07:18.692Z,97235.84
2023-04-02T14:09:53.321Z,97235.25
2023-04-02T14:12:38.630Z,97232.88
2023-04-02T14:15:40.904Z,97234.09
2023-04-02T14:18:23.292Z,97224.28
2023-04-02T14:21:21.572Z,97216.13
2023-04-02T14:23:56.101Z,97221.25
2023-04-02T14:26:46.694Z,97206.41
2023-04-02T14:29:21.651Z,97213.78
2023-04-02T14:32:06.795Z,97201.56
2023-04-02T14:34:48.850Z,97210.34
2023-04-02T14:37:39.866Z,97208.91
2023-04-02T14:40:25.547Z,97206.56
2023-04-02T14:43:04.567Z,97209.03
2023-04-02T14:46:00.401Z,97212.81
2023-04-02T14:48:47.827Z,97211.47
2023-04-02T14:51:14.885Z,97209.94
2023-04-02T14:53:51.857Z,97195.22
2023-04-02T14:56:22.206Z,97195.63
2023-04-02T14:58:54.691Z,97195.91
2023-04-02T15:01:32.086Z,97204.25
2023-04-02T15:04:09.162Z,97202.47
2023-04-02T15:06:44.885Z,97202.53
2023-04-02T15:09:19.372Z,97209.69
2023-04-02T15:11:53.222Z,97199.94
2023-04-02T15:14:39.098Z,97202.75
2023-04-02T15:17:07.680Z,97204.88
2023-04-02T15:19:34.801Z,97201.84
2023-04-02T15:22:13.756Z,97187.97
2023-04-02T15:24:55.690Z,97196.16
2023-04-02T15:27:37.717Z,97195.78
2023-04-02T15:30:09.280Z,97203.72
2023-04-02T15:32:39.780Z,97202.94
2023-04-02T15:35:47.055Z,97209.78
2023-04-02T15:38:41.241Z,97203.06
2023-04-02T15:41:27.812Z,97208.25
2023-04-02T15:44:09.886Z,97209.75
2023-04-02T15:46:56.450Z,97216.41
2023-04-02T15:49:32.308Z,97216.47
2023-04-02T15:52:22.425Z,97212.84
2023-04-02T15:55:14.178Z,97211.13
2023-04-02T15:58:02.522Z,97209.22
2023-04-02T16:00:33.221Z,97215.28
2023-04-02T16:03:32.837Z,97212.94
2023-04-02T16:06:19.115Z,97209.97
2023-04-02T16:09:08.816Z,97218.75
2023-04-02T16:11:36.876Z,97211.28
2023-04-02T16:14:21.083Z,97215.72
2023-04-02T16:16:50.759Z,97208.41
2023-04-02T16:19:35.494Z,97206.91
2023-04-02T16:22:22.960Z,97207.53
2023-04-02T16:24:58.349Z,97209.00
2023-04-02T16:27:43.535Z,97208.06
2023-04-02T16:30:51.711Z,97203.66
2023-04-02T16:33:43.985Z,97209.09
2023-04-02T16:36:29.574Z,97205.13
2023-04-02T16:39:04.271Z,97203.66
2023-04-02T16:42:07.927Z,97200.56
2023-04-02T16:44:52.808Z,97207.31
2023-04-02T16:47:47.603Z,97212.34
2023-04-02T16:50:14.763Z,97203.69
2023-04-02T16:52:52.553Z,97211.19
2023-04-02T16:55:45.710Z,97205.94
2023-04-02T16:58:27.673Z,97210.78
2023-04-02T17:01:00.783Z,97219.47
2023-04-02T17:03:46.129Z,97215.34
2023-04-02T17:06:13.464Z,97212.97
2023-04-02T17:08:44.379Z,97209.44
2023-04-02T17:11:39.128Z,97219.56
2023-04-02T17:14:21.075Z,97224.59
2023-04-02T17:16:52.906Z,97224.19
2023-04-02T17:19:21.815Z,97234.69
2023-04-02T17:21:53.169Z,97231.09
2023-04-02T17:24:41.698Z,97243.69
2023-04-02T17:27:17.327Z,97245.34
2023-04-02T17:29:48.497Z,97248.59
2023-04-02T17:32:24.354Z,97240.66
2023-04-02T17:34:51.528Z,97257.72
2023-04-02T17:37:24.929Z,97270.59
2023-04-02T17:40:04.759Z,97256.50
2023-04-02T17:43:13.006Z,97265.69
2023-04-02T17:45:40.116Z,97272.78
2023-04-02T17:48:30.930Z,97279.22
2023-04-02T17:51:32.430Z,97285.34
2023-04-02T17:54:21.201Z,97292.56
2023-04-02T17:56:57.227Z,97294.63
2023-04-02T18:00:01.647Z,97292.53
2023-04-02T18:02:52.567Z,97297.44
2023-04-02T18:05:53.784Z,97299.91
2023-04-02T18:08:56.811Z,97312.63
2023-04-02T18:11:51.539Z,97318.91
2023-04-02T18:14:34.507Z,97309.09
2023-04-02T18:17:13.823Z,97314.59
2023-04-02T18:19:58.802Z,97311.25
2023-04-02T18:22:47.709Z,97312.91
2023-04-02T18:25:39.864Z,97325.00
2023-04-02T18:28:33.613Z,97320.00
2023-04-02T18:31:19.454Z,97325.78
2023-04-02T18:34:14.346Z,97330.91
2023-04-02T18:36:53.199Z,97336.78
2023-04-02T18:39:20.234Z,97335.13
2023-04-02T18:42:19.107Z,97338.09
2023-04-02T18:45:02.846Z,97355.09
2023-04-02T18:47:51.304Z,97352.28
2023-04-02T18:50:33.667Z,97354.72
2023-04-02T18:53:13.426Z,97372.03
2023-04-02T18:56:01.893Z,97374.38
2023-04-02T18:58:53.349Z,97377.34
2023-04-02T19:01:28.501Z,97384.22
2023-04-02T19:04:03.105Z,97380.81
2023-04-02T19:06:45.064Z,97373.28
2023-04-02T19:09:15.549Z,97373.47
2023-04-02T19:11:43.144Z,97370.13
2023-04-02T19:14:15.561Z,97368.41
2023-04-02T19:17:02.981Z,97373.81
2023-04-02T19:19:42.423Z,97374.91
2023-04-02T19:22:26.192Z,97371.38
2023-04-02T19:25:13.271Z,97370.13
2023-04-02T19:28:02.400Z,97361.81
2023-04-02T19:30:40.140Z,97362.34
2023-04-02T19:33:35.810Z,97360.63
2023-04-02T19:36:33.049Z,97372.84
2023-04-02T19:39:29.746Z,97380.47
2023-04-02T19:42:17.713Z,97376.63
2023-04-02T19:44:49.351Z,97379.03
2023-04-02T19:47:21.898Z,97376.47
2023-04-02T19:49:52.100Z,97383.22
2023-04-02T19:52:21.696Z,97387.47
2023-04-02T19:54:49.009Z,97389.75
2023-04-02T19:57:17.594Z,97391.97
2023-04-02T19:59:44.805Z,97393.47
2023-04-02T20:02:12.075Z,97392.63
2023-04-02T20:04:39.345Z,97398.66
2023-04-02T20:07:06.633Z,97394.41
2023-04-02T20:09:33.819Z,97388.69
2023-04-02T20:12:01.406Z,97388.19
2023-04-02T20:14:28.663Z,97398.66
2023-04-02T20:16:56.134Z,97388.72
2023-04-02T20:19:23.317Z,97384.28
2023-04-02T20:21:50.525Z,97384.94
2023-04-02T20:24:17.717Z,97396.47
2023-04-02T20:26:44.910Z,97394.13
2023-04-02T20:29:12.360Z,97402.56
2023-04-02T20:31:39.704Z,97400.03
2023-04-02T20:34:08.793Z,97402.56
2023-04-02T20:36:36.296Z,97400.66
2023-04-02T20:39:04.312Z,97403.81
2023-04-02T20:41:31.553Z,97408.53
2023-04-02T20:43:58.882Z,97402.34
2023-04-02T20:46:26.448Z,97411.50
2023-04-02T20:48:54.198Z,97407.44
2023-04-02T20:51:22.125Z,97405.09
2023-04-02T20:53:49.536Z,97413.22
2023-04-02T20:56:18.060Z,97409.63
2023-04-02T20:58:45.658Z,97415.03
2023-04-02T21:01:23.319Z,97413.16
2023-04-02T21:03:55.837Z,97409.53
2023-04-02T21:06:25.222Z,97398.56
2023-04-02T21:08:53.008Z,97393.22
2023-04-02T21:11:22.750Z,97400.16
2023-04-02T21:13:50.603Z,97399.69
2023-04-02T21:16:28.612Z,97403.59
2023-04-02T21:18:58.962Z,97404.94
2023-04-02T21:21:38.152Z,97413.88
2023-04-02T21:24:08.433Z,97413.72
2023-04-02T21:26:39.291Z,97424.53
2023-04-02T21:29:07.520Z,97415.50
2023-04-02T21:31:37.880Z,97409.59
2023-04-02T21:34:06.840Z,97413.69
2023-04-02T21:36:36.686Z,97404.19
2023-04-02T21:39:07.265Z,97410.78
2023-04-02T21:41:40.213Z,97416.19
2023-04-02T21:44:09.362Z,97412.59
2023-04-02T21:46:39.695Z,97418.00
2023-04-02T21:49:10.292Z,97428.47
2023-04-02T21:51:39.162Z,97426.31
2023-04-02T21:54:07.248Z,97437.47
2023-04-02T21:56:39.641Z,97433.53
2023-04-02T21:59:08.937Z,97442.50
2023-04-02T22:01:38.740Z,97442.56
2023-04-02T22:04:08.074Z,97442.78
2023-04-02T22:06:42.076Z,97451.66
2023-04-02T22:09:13.011Z,97449.94
2023-04-02T22:11:43.760Z,97453.72
2023-04-02T22:14:11.738Z,97454.34
2023-04-02T22:16:40.244Z,97457.69
2023-04-02T22:19:10.158Z,97455.22
2023-04-02T22:21:38.622Z,97452.88
2023-04-02T22:24:09.427Z,97457.31
2023-04-02T22:26:37.271Z,97458.00
2023-04-02T22:29:05.743Z,97466.25
2023-04-02T22:31:35.258Z,97462.19
2023-04-02T22:34:04.976Z,97453.72
2023-04-02T22:36:32.637Z,97461.84
2023-04-02T22:39:01.171Z,97465.66
2023-04-02T22:41:29.752Z,97460.50
2023-04-02T22:43:57.816Z,97464.75
2023-04-02T22:46:26.933Z,97464.75
2023-04-02T22:48:54.916Z,97468.34
2023-04-02T22:51:24.333Z,97458.84
2023-04-02T22:53:54.321Z,97462.06
2023-04-02T22:56:25.079Z,97454.41
2023-04-02T22:58:52.814Z,97448.59
2023-04-02T23:01:23.903Z,97460.97
2023-04-02T23:03:54.447Z,97451.38
2023-04-02T23:06:22.110Z,97449.06
2023-04-02T23:08:49.738Z,97449.75
2023-04-02T23:11:23.301Z,97445.22
2023-04-02T23:13:52.994Z,97447.16
2023-04-02T23:16:20.791Z,97441.78
2023-04-02T23:18:49.123Z,97444.31
2023-04-02T23:21:18.007Z,97438.03
2023-04-02T23:23:46.507Z,97442.75
2023-04-02T23:26:38.697Z,97419.34
2023-04-02T23:29:06.716Z,97415.56
2023-04-02T23:31:33.984Z,97438.97
2023-04-02T23:34:01.157Z,97438.53
2023-04-02T23:36:33.122Z,97443.69
2023-04-02T23:39:02.768Z,97444.63
2023-04-02T23:41:31.081Z,97440.75
2023-04-02T23:43:59.416Z,97434.19
2023-04-02T23:46:26.917Z,97430.44
2023-04-02T23:48:54.976Z,97432.88
2023-04-02T23:51:23.254Z,97427.63
2023-04-02T23:53:51.420Z,97416.09
2023-04-02T23:56:19.500Z,97432.84
2023-04-02T23:58:49.831Z,97424.19
